sensor_id;sensor_type;location;lat;lon;timestamp;temperature;humidity
43963;DHT22;29622;45.534;9.242;2022-07-25T00:03:26;31.90;38.60
43963;DHT22;29622;45.534;9.242;2022-07-25T00:08:26;31.90;38.80
43963;DHT22;29622;45.534;9.242;2022-07-25T00:13:27;31.90;38.90
43963;DHT22;29622;45.534;9.242;2022-07-25T00:18:28;31.80;38.90
43963;DHT22;29622;45.534;9.242;2022-07-25T00:23:29;31.70;38.90
43963;DHT22;29622;45.534;9.242;2022-07-25T00:28:29;31.70;38.90
43963;DHT22;29622;45.534;9.242;2022-07-25T00:33:30;31.70;39.00
43963;DHT22;29622;45.534;9.242;2022-07-25T00:38:31;31.60;38.80
43963;DHT22;29622;45.534;9.242;2022-07-25T00:43:31;31.60;38.80
43963;DHT22;29622;45.534;9.242;2022-07-25T00:48:32;31.60;38.80
43963;DHT22;29622;45.534;9.242;2022-07-25T00:53:34;31.60;38.80
43963;DHT22;29622;45.534;9.242;2022-07-25T00:58:35;31.50;38.70
43963;DHT22;29622;45.534;9.242;2022-07-25T01:03:36;31.50;38.80
43963;DHT22;29622;45.534;9.242;2022-07-25T01:08:37;31.40;38.90
43963;DHT22;29622;45.534;9.242;2022-07-25T01:13:38;31.20;39.10
43963;DHT22;29622;45.534;9.242;2022-07-25T01:18:39;31.10;39.30
43963;DHT22;29622;45.534;9.242;2022-07-25T01:23:40;31.10;39.60
43963;DHT22;29622;45.534;9.242;2022-07-25T01:28:40;31.10;39.60
43963;DHT22;29622;45.534;9.242;2022-07-25T01:33:41;31.10;39.70
43963;DHT22;29622;45.534;9.242;2022-07-25T01:38:42;30.90;39.80
43963;DHT22;29622;45.534;9.242;2022-07-25T01:43:42;30.80;40.20
43963;DHT22;29622;45.534;9.242;2022-07-25T01:48:43;30.60;40.40
43963;DHT22;29622;45.534;9.242;2022-07-25T01:53:44;30.50;40.50
43963;DHT22;29622;45.534;9.242;2022-07-25T01:58:44;30.50;40.40
43963;DHT22;29622;45.534;9.242;2022-07-25T02:03:45;30.60;40.20
43963;DHT22;29622;45.534;9.242;2022-07-25T02:08:45;30.60;40.10
43963;DHT22;29622;45.534;9.242;2022-07-25T02:13:46;30.70;40.20
43963;DHT22;29622;45.534;9.242;2022-07-25T02:18:47;30.70;39.80
43963;DHT22;29622;45.534;9.242;2022-07-25T02:23:47;30.70;39.60
43963;DHT22;29622;45.534;9.242;2022-07-25T02:28:49;30.80;39.70
43963;DHT22;29622;45.534;9.242;2022-07-25T02:33:50;30.80;39.30
43963;DHT22;29622;45.534;9.242;2022-07-25T02:38:50;30.60;39.40
43963;DHT22;29622;45.534;9.242;2022-07-25T02:43:51;30.60;39.60
43963;DHT22;29622;45.534;9.242;2022-07-25T02:48:52;30.50;39.70
43963;DHT22;29622;45.534;9.242;2022-07-25T02:53:52;30.40;40.10
43963;DHT22;29622;45.534;9.242;2022-07-25T02:58:53;30.30;40.10
43963;DHT22;29622;45.534;9.242;2022-07-25T03:03:54;30.20;39.30
43963;DHT22;29622;45.534;9.242;2022-07-25T03:08:54;30.20;39.30
43963;DHT22;29622;45.534;9.242;2022-07-25T03:13:55;30.20;39.30
43963;DHT22;29622;45.534;9.242;2022-07-25T03:18:57;30.20;39.30
43963;DHT22;29622;45.534;9.242;2022-07-25T03:23:57;30.10;39.80
43963;DHT22;29622;45.534;9.242;2022-07-25T03:28:58;30.00;39.50
43963;DHT22;29622;45.534;9.242;2022-07-25T03:33:59;29.90;39.10
43963;DHT22;29622;45.534;9.242;2022-07-25T03:39:00;29.90;39.40
43963;DHT22;29622;45.534;9.242;2022-07-25T03:44:01;29.90;40.00
43963;DHT22;29622;45.534;9.242;2022-07-25T03:49:01;29.90;40.40
43963;DHT22;29622;45.534;9.242;2022-07-25T03:54:03;29.80;40.50
43963;DHT22;29622;45.534;9.242;2022-07-25T03:59:06;29.90;40.50
43963;DHT22;29622;45.534;9.242;2022-07-25T04:04:08;29.80;40.30
43963;DHT22;29622;45.534;9.242;2022-07-25T04:09:12;29.70;40.70
43963;DHT22;29622;45.534;9.242;2022-07-25T04:14:13;29.70;40.60
43963;DHT22;29622;45.534;9.242;2022-07-25T04:19:14;29.70;40.70
43963;DHT22;29622;45.534;9.242;2022-07-25T04:24:14;29.70;40.10
43963;DHT22;29622;45.534;9.242;2022-07-25T04:29:15;29.90;39.50
43963;DHT22;29622;45.534;9.242;2022-07-25T04:34:16;29.90;38.90
43963;DHT22;29622;45.534;9.242;2022-07-25T04:39:16;29.90;38.40
43963;DHT22;29622;45.534;9.242;2022-07-25T04:44:17;29.90;38.10
43963;DHT22;29622;45.534;9.242;2022-07-25T04:49:18;29.80;37.80
43963;DHT22;29622;45.534;9.242;2022-07-25T04:54:19;29.80;38.10
43963;DHT22;29622;45.534;9.242;2022-07-25T04:59:19;29.80;38.60
43963;DHT22;29622;45.534;9.242;2022-07-25T05:04:20;29.80;38.10
43963;DHT22;29622;45.534;9.242;2022-07-25T05:09:21;29.80;38.00
43963;DHT22;29622;45.534;9.242;2022-07-25T05:14:21;29.80;37.60
43963;DHT22;29622;45.534;9.242;2022-07-25T05:19:22;29.80;37.90
43963;DHT22;29622;45.534;9.242;2022-07-25T05:24:22;29.80;37.80
43963;DHT22;29622;45.534;9.242;2022-07-25T05:29:23;29.90;38.90
43963;DHT22;29622;45.534;9.242;2022-07-25T05:34:24;30.00;39.50
43963;DHT22;29622;45.534;9.242;2022-07-25T05:39:25;30.20;39.90
43963;DHT22;29622;45.534;9.242;2022-07-25T05:44:25;30.30;40.00
43963;DHT22;29622;45.534;9.242;2022-07-25T05:49:26;30.40;40.10
43963;DHT22;29622;45.534;9.242;2022-07-25T05:54:27;30.50;40.20
43963;DHT22;29622;45.534;9.242;2022-07-25T05:59:27;30.60;40.10
43963;DHT22;29622;45.534;9.242;2022-07-25T06:04:28;30.70;40.20
43963;DHT22;29622;45.534;9.242;2022-07-25T06:09:29;30.80;40.30
43963;DHT22;29622;45.534;9.242;2022-07-25T06:14:31;30.80;40.30
43963;DHT22;29622;45.534;9.242;2022-07-25T06:19:31;30.80;40.20
43963;DHT22;29622;45.534;9.242;2022-07-25T06:24:32;30.70;40.00
43963;DHT22;29622;45.534;9.242;2022-07-25T06:29:33;30.60;40.00
43963;DHT22;29622;45.534;9.242;2022-07-25T06:34:33;30.60;40.00
43963;DHT22;29622;45.534;9.242;2022-07-25T06:39:34;30.70;40.40
43963;DHT22;29622;45.534;9.242;2022-07-25T06:44:35;30.80;41.00
43963;DHT22;29622;45.534;9.242;2022-07-25T06:49:36;30.80;40.90
43963;DHT22;29622;45.534;9.242;2022-07-25T06:54:36;30.90;40.60
43963;DHT22;29622;45.534;9.242;2022-07-25T06:59:37;31.00;40.40
43963;DHT22;29622;45.534;9.242;2022-07-25T07:04:38;31.10;40.30
43963;DHT22;29622;45.534;9.242;2022-07-25T07:09:39;31.10;40.10
43963;DHT22;29622;45.534;9.242;2022-07-25T07:14:39;31.10;40.00
43963;DHT22;29622;45.534;9.242;2022-07-25T07:19:41;31.10;39.90
43963;DHT22;29622;45.534;9.242;2022-07-25T07:24:45;31.20;39.80
43963;DHT22;29622;45.534;9.242;2022-07-25T07:29:45;31.20;40.20
43963;DHT22;29622;45.534;9.242;2022-07-25T07:34:46;31.30;39.70
43963;DHT22;29622;45.534;9.242;2022-07-25T07:39:47;31.50;39.60
43963;DHT22;29622;45.534;9.242;2022-07-25T07:44:47;31.50;39.50
43963;DHT22;29622;45.534;9.242;2022-07-25T07:49:48;31.60;39.60
43963;DHT22;29622;45.534;9.242;2022-07-25T07:54:48;31.70;39.60
43963;DHT22;29622;45.534;9.242;2022-07-25T08:00:08;31.70;39.60
43963;DHT22;29622;45.534;9.242;2022-07-25T08:05:19;31.70;39.50
43963;DHT22;29622;45.534;9.242;2022-07-25T08:10:22;31.60;39.40
43963;DHT22;29622;45.534;9.242;2022-07-25T08:15:24;31.60;39.40
43963;DHT22;29622;45.534;9.242;2022-07-25T08:20:25;31.70;39.20
43963;DHT22;29622;45.534;9.242;2022-07-25T08:25:27;31.70;39.00
43963;DHT22;29622;45.534;9.242;2022-07-25T08:30:28;31.80;38.90
43963;DHT22;29622;45.534;9.242;2022-07-25T08:35:29;31.90;38.70
43963;DHT22;29622;45.534;9.242;2022-07-25T08:40:32;31.90;38.70
43963;DHT22;29622;45.534;9.242;2022-07-25T08:45:33;31.90;37.50
43963;DHT22;29622;45.534;9.242;2022-07-25T08:50:34;32.00;37.00
43963;DHT22;29622;45.534;9.242;2022-07-25T08:55:35;32.00;36.50
43963;DHT22;29622;45.534;9.242;2022-07-25T09:00:36;32.10;36.20
43963;DHT22;29622;45.534;9.242;2022-07-25T09:05:38;32.10;35.80
43963;DHT22;29622;45.534;9.242;2022-07-25T09:10:45;32.20;35.50
43963;DHT22;29622;45.534;9.242;2022-07-25T09:15:51;32.30;35.20
43963;DHT22;29622;45.534;9.242;2022-07-25T09:20:59;32.50;35.60
43963;DHT22;29622;45.534;9.242;2022-07-25T09:31:05;32.80;34.90
43963;DHT22;29622;45.534;9.242;2022-07-25T09:36:09;32.70;34.90
43963;DHT22;29622;45.534;9.242;2022-07-25T09:41:10;32.70;34.90
43963;DHT22;29622;45.534;9.242;2022-07-25T09:46:11;32.70;34.90
43963;DHT22;29622;45.534;9.242;2022-07-25T09:51:12;32.80;34.90
43963;DHT22;29622;45.534;9.242;2022-07-25T09:56:13;32.90;34.90
43963;DHT22;29622;45.534;9.242;2022-07-25T10:01:19;33.00;34.90
43963;DHT22;29622;45.534;9.242;2022-07-25T10:12:08;33.10;34.40
43963;DHT22;29622;45.534;9.242;2022-07-25T10:17:19;33.00;34.50
43963;DHT22;29622;45.534;9.242;2022-07-25T10:22:20;33.00;34.70
43963;DHT22;29622;45.534;9.242;2022-07-25T10:27:23;33.00;34.90
43963;DHT22;29622;45.534;9.242;2022-07-25T10:32:25;32.90;35.00
43963;DHT22;29622;45.534;9.242;2022-07-25T10:37:35;32.80;35.30
43963;DHT22;29622;45.534;9.242;2022-07-25T10:42:36;32.80;35.50
43963;DHT22;29622;45.534;9.242;2022-07-25T10:47:38;32.90;35.70
43963;DHT22;29622;45.534;9.242;2022-07-25T10:52:42;32.80;36.70
43963;DHT22;29622;45.534;9.242;2022-07-25T10:57:43;32.60;36.60
43963;DHT22;29622;45.534;9.242;2022-07-25T11:02:44;32.60;36.50
43963;DHT22;29622;45.534;9.242;2022-07-25T11:07:52;32.30;37.30
43963;DHT22;29622;45.534;9.242;2022-07-25T11:12:54;32.30;37.20
43963;DHT22;29622;45.534;9.242;2022-07-25T11:17:55;32.50;37.20
43963;DHT22;29622;45.534;9.242;2022-07-25T11:22:55;32.40;36.60
43963;DHT22;29622;45.534;9.242;2022-07-25T11:27:58;32.30;37.10
43963;DHT22;29622;45.534;9.242;2022-07-25T11:32:59;32.10;37.50
43963;DHT22;29622;45.534;9.242;2022-07-25T11:38:03;32.00;37.90
43963;DHT22;29622;45.534;9.242;2022-07-25T11:43:05;31.90;37.90
43963;DHT22;29622;45.534;9.242;2022-07-25T11:48:11;31.90;37.90
43963;DHT22;29622;45.534;9.242;2022-07-25T11:53:13;31.80;38.00
43963;DHT22;29622;45.534;9.242;2022-07-25T11:58:16;31.90;38.10
43963;DHT22;29622;45.534;9.242;2022-07-25T12:03:18;32.30;37.80
43963;DHT22;29622;45.534;9.242;2022-07-25T12:08:21;32.30;37.40
43963;DHT22;29622;45.534;9.242;2022-07-25T12:13:24;32.10;37.50
43963;DHT22;29622;45.534;9.242;2022-07-25T12:18:26;32.10;37.70
43963;DHT22;29622;45.534;9.242;2022-07-25T12:23:27;32.40;37.30
43963;DHT22;29622;45.534;9.242;2022-07-25T12:28:27;32.30;37.30
43963;DHT22;29622;45.534;9.242;2022-07-25T12:33:28;32.20;37.30
43963;DHT22;29622;45.534;9.242;2022-07-25T12:38:29;32.10;37.50
43963;DHT22;29622;45.534;9.242;2022-07-25T12:43:30;32.00;37.60
43963;DHT22;29622;45.534;9.242;2022-07-25T12:48:31;32.30;37.50
43963;DHT22;29622;45.534;9.242;2022-07-25T12:53:31;33.10;36.80
43963;DHT22;29622;45.534;9.242;2022-07-25T12:58:32;33.40;36.30
43963;DHT22;29622;45.534;9.242;2022-07-25T13:03:33;33.70;35.90
43963;DHT22;29622;45.534;9.242;2022-07-25T13:08:33;33.70;36.10
43963;DHT22;29622;45.534;9.242;2022-07-25T13:13:37;33.90;35.90
43963;DHT22;29622;45.534;9.242;2022-07-25T13:18:38;33.80;36.00
43963;DHT22;29622;45.534;9.242;2022-07-25T13:23:39;33.60;36.30
43963;DHT22;29622;45.534;9.242;2022-07-25T13:28:40;33.10;36.60
43963;DHT22;29622;45.534;9.242;2022-07-25T13:33:40;33.20;36.90
43963;DHT22;29622;45.534;9.242;2022-07-25T13:38:42;33.60;36.40
43963;DHT22;29622;45.534;9.242;2022-07-25T13:43:44;33.80;36.10
43963;DHT22;29622;45.534;9.242;2022-07-25T13:48:44;33.50;36.30
43963;DHT22;29622;45.534;9.242;2022-07-25T13:53:45;33.90;36.20
43963;DHT22;29622;45.534;9.242;2022-07-25T13:58:46;34.60;35.50
43963;DHT22;29622;45.534;9.242;2022-07-25T14:03:47;34.70;35.20
43963;DHT22;29622;45.534;9.242;2022-07-25T14:08:47;34.70;34.90
43963;DHT22;29622;45.534;9.242;2022-07-25T14:13:48;33.90;35.40
43963;DHT22;29622;45.534;9.242;2022-07-25T14:18:50;33.30;35.70
43963;DHT22;29622;45.534;9.242;2022-07-25T14:23:51;32.90;36.10
43963;DHT22;29622;45.534;9.242;2022-07-25T14:28:51;32.90;36.50
43963;DHT22;29622;45.534;9.242;2022-07-25T14:33:52;33.70;36.00
43963;DHT22;29622;45.534;9.242;2022-07-25T14:38:53;34.60;35.20
43963;DHT22;29622;45.534;9.242;2022-07-25T14:43:54;35.20;34.70
43963;DHT22;29622;45.534;9.242;2022-07-25T14:48:54;35.10;34.50
43963;DHT22;29622;45.534;9.242;2022-07-25T14:53:55;34.90;34.70
43963;DHT22;29622;45.534;9.242;2022-07-25T14:58:56;34.60;35.00
43963;DHT22;29622;45.534;9.242;2022-07-25T15:03:57;34.50;35.60
43963;DHT22;29622;45.534;9.242;2022-07-25T15:08:58;35.10;35.10
43963;DHT22;29622;45.534;9.242;2022-07-25T15:13:58;35.90;34.40
43963;DHT22;29622;45.534;9.242;2022-07-25T15:18:59;36.30;34.20
43963;DHT22;29622;45.534;9.242;2022-07-25T15:24:00;36.20;34.10
43963;DHT22;29622;45.534;9.242;2022-07-25T15:29:01;36.00;34.50
43963;DHT22;29622;45.534;9.242;2022-07-25T15:34:01;36.10;34.50
43963;DHT22;29622;45.534;9.242;2022-07-25T15:39:02;36.00;34.60
43963;DHT22;29622;45.534;9.242;2022-07-25T15:44:03;35.90;34.60
43963;DHT22;29622;45.534;9.242;2022-07-25T15:49:04;35.70;34.80
43963;DHT22;29622;45.534;9.242;2022-07-25T15:54:05;36.40;34.00
43963;DHT22;29622;45.534;9.242;2022-07-25T15:59:06;36.90;33.50
43963;DHT22;29622;45.534;9.242;2022-07-25T16:04:07;37.20;33.20
43963;DHT22;29622;45.534;9.242;2022-07-25T16:09:07;37.60;32.60
43963;DHT22;29622;45.534;9.242;2022-07-25T16:14:08;37.60;32.40
43963;DHT22;29622;45.534;9.242;2022-07-25T16:19:09;37.80;32.30
43963;DHT22;29622;45.534;9.242;2022-07-25T16:24:10;37.70;32.30
43963;DHT22;29622;45.534;9.242;2022-07-25T16:29:11;37.40;32.40
43963;DHT22;29622;45.534;9.242;2022-07-25T16:34:12;37.20;32.40
43963;DHT22;29622;45.534;9.242;2022-07-25T16:39:12;36.70;32.30
43963;DHT22;29622;45.534;9.242;2022-07-25T16:44:13;35.90;33.00
43963;DHT22;29622;45.534;9.242;2022-07-25T16:49:14;35.20;33.50
43963;DHT22;29622;45.534;9.242;2022-07-25T16:54:15;34.50;34.20
43963;DHT22;29622;45.534;9.242;2022-07-25T16:59:16;34.80;34.20
43963;DHT22;29622;45.534;9.242;2022-07-25T17:04:17;35.40;33.40
43963;DHT22;29622;45.534;9.242;2022-07-25T17:09:18;35.70;33.10
43963;DHT22;29622;45.534;9.242;2022-07-25T17:14:19;35.30;33.30
43963;DHT22;29622;45.534;9.242;2022-07-25T17:19:20;35.10;33.50
43963;DHT22;29622;45.534;9.242;2022-07-25T17:24:21;35.00;33.60
43963;DHT22;29622;45.534;9.242;2022-07-25T17:29:21;35.00;33.80
43963;DHT22;29622;45.534;9.242;2022-07-25T17:34:22;35.00;33.90
43963;DHT22;29622;45.534;9.242;2022-07-25T17:39:25;35.10;33.80
43963;DHT22;29622;45.534;9.242;2022-07-25T17:44:26;35.20;34.00
43963;DHT22;29622;45.534;9.242;2022-07-25T17:49:29;34.90;34.10
43963;DHT22;29622;45.534;9.242;2022-07-25T17:54:30;34.60;34.30
43963;DHT22;29622;45.534;9.242;2022-07-25T17:59:31;34.30;34.70
43963;DHT22;29622;45.534;9.242;2022-07-25T18:04:33;34.30;34.70
43963;DHT22;29622;45.534;9.242;2022-07-25T18:09:34;34.10;34.80
43963;DHT22;29622;45.534;9.242;2022-07-25T18:14:35;34.10;34.80
43963;DHT22;29622;45.534;9.242;2022-07-25T18:19:36;33.90;34.80
43963;DHT22;29622;45.534;9.242;2022-07-25T18:24:37;33.40;35.20
43963;DHT22;29622;45.534;9.242;2022-07-25T18:29:37;33.20;35.40
43963;DHT22;29622;45.534;9.242;2022-07-25T18:34:38;33.20;35.40
43963;DHT22;29622;45.534;9.242;2022-07-25T18:39:39;32.90;35.40
43963;DHT22;29622;45.534;9.242;2022-07-25T18:44:41;32.60;35.70
43963;DHT22;29622;45.534;9.242;2022-07-25T18:49:42;32.60;35.90
43963;DHT22;29622;45.534;9.242;2022-07-25T18:54:43;33.00;36.10
